Time;durP1;ratioP1;P1;durP2;ratioP2;P2;SDS_P1;SDS_P2;PMS_P1;PMS_P2;Temp;Humidity;BMP_temperature;BMP_pressure;BME280_temperature;BME280_humidity;BME280_pressure;Samples;Min_cycle;Max_cycle;Signal;HPM_P1;HPM_P2
2022/10/05 00:01:21;;;;;;;;;;;11.30;68.90;;;;;;5024662;28;89009;-41
2022/10/05 00:03:47;;;;;;;;;;;11.30;68.80;;;;;;5023011;28;88336;-41
2022/10/05 00:06:12;;;;;;;;;;;11.20;68.80;;;;;;5022597;28;87924;-41
2022/10/05 00:08:38;;;;;;;;;;;11.30;68.80;;;;;;5022641;28;87129;-41
2022/10/05 00:11:07;;;;;;;;;;;11.30;68.70;;;;;;5021937;28;87449;-40
2022/10/05 00:13:33;;;;;;;;;;;11.30;68.70;;;;;;5022342;28;87303;-41
2022/10/05 00:16:06;;;;;;;;;;;11.20;68.80;;;;;;5022796;28;87020;-41
2022/10/05 00:18:32;;;;;;;;;;;11.20;68.80;;;;;;5022732;28;88746;-40
2022/10/05 00:20:57;;;;;;;;;;;11.20;68.80;;;;;;5022271;28;88140;-40
2022/10/05 00:23:29;;;;;;;;;;;11.20;68.70;;;;;;5025566;28;87118;-40
2022/10/05 00:25:56;;;;;;;;;;;11.20;68.60;;;;;;5021520;28;88204;-41
2022/10/05 00:28:25;;;;;;;;;;;11.20;68.60;;;;;;5022507;28;87062;-40
2022/10/05 00:30:53;;;;;;;;;;;11.20;68.70;;;;;;5022280;28;87417;-40
2022/10/05 00:33:19;;;;;;;;;;;11.10;68.70;;;;;;5022122;28;88195;-41
2022/10/05 00:35:44;;;;;;;;;;;11.20;68.60;;;;;;5022495;28;87073;-40
2022/10/05 00:38:10;;;;;;;;;;;11.20;68.50;;;;;;5022427;28;87236;-40
2022/10/05 00:40:45;;;;;;;;;;;11.20;68.50;;;;;;5021875;28;87545;-41
2022/10/05 00:43:16;;;;;;;;;;;11.10;68.50;;;;;;5022898;28;86727;-40
2022/10/05 00:45:46;;;;;;;;;;;11.10;68.60;;;;;;5024945;28;86801;-40
2022/10/05 00:48:24;;;;;;;;;;;11.10;68.50;;;;;;5022067;28;87820;-40
2022/10/05 00:51:14;;;;;;;;;;;11.10;68.60;;;;;;5021391;28;87810;-40
2022/10/05 00:53:41;;;;;;;;;;;11.10;68.50;;;;;;5021995;28;87985;-40
2022/10/05 00:56:25;;;;;;;;;;;11.10;68.60;;;;;;5022005;28;87120;-40
2022/10/05 00:59:01;;;;;;;;;;;11.10;68.50;;;;;;5022294;28;87297;-40
2022/10/05 01:01:27;;;;;;;;;;;11.10;68.50;;;;;;5021776;28;88161;-40
2022/10/05 01:04:11;;;;;;;;;;;11.10;68.40;;;;;;5022146;28;86923;-41
2022/10/05 01:07:05;;;;;;;;;;;11.00;68.50;;;;;;5024956;28;87957;-40
2022/10/05 01:09:50;;;;;;;;;;;11.00;68.50;;;;;;5021368;28;86487;-41
2022/10/05 01:12:30;;;;;;;;;;;11.00;68.50;;;;;;5022087;28;86934;-41
2022/10/05 01:15:08;;;;;;;;;;;11.00;68.60;;;;;;5021530;28;88117;-41
2022/10/05 01:17:48;;;;;;;;;;;11.00;68.50;;;;;;5021046;28;88011;-40
2022/10/05 01:20:19;;;;;;;;;;;11.00;68.50;;;;;;5021784;28;88337;-41
2022/10/05 01:23:00;;;;;;;;;;;11.00;68.50;;;;;;5023242;28;88086;-41
2022/10/05 01:25:44;;;;;;;;;;;10.90;68.50;;;;;;5025504;28;86974;-41
2022/10/05 01:28:12;;;;;;;;;;;11.00;68.50;;;;;;5025374;28;87400;-40
2022/10/05 01:30:51;;;;;;;;;;;10.90;68.50;;;;;;5027726;28;87999;-41
2022/10/05 01:33:27;;;;;;;;;;;10.90;68.60;;;;;;5025253;28;86914;-41
2022/10/05 01:36:02;;;;;;;;;;;10.90;68.60;;;;;;5025005;28;87355;-40
2022/10/05 01:38:33;;;;;;;;;;;10.90;68.50;;;;;;5024915;28;86954;-40
2022/10/05 01:41:10;;;;;;;;;;;10.90;68.50;;;;;;5025084;28;86946;-41
2022/10/05 01:43:47;;;;;;;;;;;10.90;68.40;;;;;;5024059;28;89106;-41
2022/10/05 01:46:12;;;;;;;;;;;10.90;68.40;;;;;;5024744;28;87062;-40
2022/10/05 01:48:50;;;;;;;;;;;10.80;68.50;;;;;;5024820;28;86995;-41
2022/10/05 01:51:27;;;;;;;;;;;10.80;68.50;;;;;;5024623;28;88028;-41
2022/10/05 01:54:01;;;;;;;;;;;10.80;68.50;;;;;;5027953;28;86932;-41
2022/10/05 01:56:33;;;;;;;;;;;10.80;68.50;;;;;;5024460;28;88493;-41
2022/10/05 01:58:58;;;;;;;;;;;10.80;68.50;;;;;;5024662;28;87557;-40
2022/10/05 02:01:27;;;;;;;;;;;10.80;68.40;;;;;;5025284;28;87476;-40
2022/10/05 02:04:00;;;;;;;;;;;10.80;68.50;;;;;;5024264;28;87608;-41
2022/10/05 02:06:28;;;;;;;;;;;10.80;68.50;;;;;;5024929;28;86834;-41
2022/10/05 02:09:06;;;;;;;;;;;10.80;68.40;;;;;;5023902;28;87814;-40
2022/10/05 02:11:32;;;;;;;;;;;10.70;68.40;;;;;;5023986;28;87498;-40
2022/10/05 02:14:01;;;;;;;;;;;10.70;68.30;;;;;;5023099;28;87101;-41
2022/10/05 02:16:38;;;;;;;;;;;10.70;68.40;;;;;;5026710;28;87539;-41
2022/10/05 02:19:30;;;;;;;;;;;10.80;68.20;;;;;;5024083;28;87153;-41
2022/10/05 02:22:02;;;;;;;;;;;10.70;68.40;;;;;;5023985;28;87350;-40
2022/10/05 02:24:31;;;;;;;;;;;10.60;68.50;;;;;;5023759;28;87603;-41
2022/10/05 02:26:57;;;;;;;;;;;10.70;68.50;;;;;;5024848;28;86370;-41
2022/10/05 02:29:25;;;;;;;;;;;10.70;68.50;;;;;;5024232;28;86933;-40
2022/10/05 02:31:56;;;;;;;;;;;10.60;68.40;;;;;;5023744;28;87988;-41
2022/10/05 02:34:24;;;;;;;;;;;10.60;68.40;;;;;;5022552;28;88059;-40
2022/10/05 02:37:12;;;;;;;;;;;10.60;68.30;;;;;;5024202;28;88436;-41
2022/10/05 02:39:38;;;;;;;;;;;10.60;68.30;;;;;;5026075;28;88199;-41
2022/10/05 02:42:10;;;;;;;;;;;10.70;68.20;;;;;;5024067;28;87422;-40
2022/10/05 02:44:35;;;;;;;;;;;10.60;68.30;;;;;;5023725;28;87923;-40
2022/10/05 02:47:06;;;;;;;;;;;10.50;68.50;;;;;;5024087;28;87610;-40
2022/10/05 02:49:40;;;;;;;;;;;10.50;68.50;;;;;;5023275;28;87421;-41
2022/10/05 02:52:22;;;;;;;;;;;10.50;68.40;;;;;;5023980;28;87281;-40
2022/10/05 02:55:06;;;;;;;;;;;10.50;68.50;;;;;;5023902;28;86965;-41
2022/10/05 02:57:38;;;;;;;;;;;10.50;68.30;;;;;;5023746;28;87011;-41
2022/10/05 03:00:04;;;;;;;;;;;10.50;68.40;;;;;;5022616;28;89058;-41
2022/10/05 03:02:35;;;;;;;;;;;10.50;68.50;;;;;;5026327;28;87091;-40
2022/10/05 03:05:03;;;;;;;;;;;10.50;68.50;;;;;;5023201;28;87836;-41
2022/10/05 03:07:37;;;;;;;;;;;10.50;68.40;;;;;;5023883;28;87065;-40
2022/10/05 03:10:06;;;;;;;;;;;10.40;68.30;;;;;;5023647;28;87404;-41
2022/10/05 03:12:48;;;;;;;;;;;10.50;68.40;;;;;;5023273;28;88205;-40
2022/10/05 03:15:16;;;;;;;;;;;10.50;68.50;;;;;;5023434;28;86992;-41
2022/10/05 03:18:00;;;;;;;;;;;10.40;68.40;;;;;;5023594;28;86578;-41
2022/10/05 03:20:29;;;;;;;;;;;10.40;68.40;;;;;;5023405;28;87289;-40
2022/10/05 03:22:59;;;;;;;;;;;10.40;68.40;;;;;;5026434;28;87108;-40
2022/10/05 03:25:24;;;;;;;;;;;10.40;68.40;;;;;;5022295;28;88371;-40
2022/10/05 03:28:10;;;;;;;;;;;10.40;68.40;;;;;;5023204;28;87176;-40
2022/10/05 03:30:38;;;;;;;;;;;10.40;68.20;;;;;;5021699;28;88538;-41
2022/10/05 03:33:16;;;;;;;;;;;10.40;68.30;;;;;;5022786;28;88039;-41
2022/10/05 03:35:52;;;;;;;;;;;10.40;68.30;;;;;;5023152;28;86841;-40
2022/10/05 03:38:31;;;;;;;;;;;10.40;68.00;;;;;;5023124;28;87472;-40
2022/10/05 03:40:57;;;;;;;;;;;10.40;68.20;;;;;;5022862;28;88179;-41
2022/10/05 03:43:31;;;;;;;;;;;10.30;68.10;;;;;;5023634;28;86331;-41
2022/10/05 03:46:09;;;;;;;;;;;10.40;68.30;;;;;;5024569;28;87048;-41
2022/10/05 03:48:37;;;;;;;;;;;10.30;68.10;;;;;;5022806;28;87039;-41
2022/10/05 03:51:07;;;;;;;;;;;10.30;68.00;;;;;;5022521;28;88001;-41
2022/10/05 03:53:36;;;;;;;;;;;10.30;68.10;;;;;;5022494;28;88423;-41
2022/10/05 03:56:02;;;;;;;;;;;10.30;68.00;;;;;;5022864;28;87060;-40
2022/10/05 03:58:32;;;;;;;;;;;10.30;68.10;;;;;;5023458;28;87457;-40
2022/10/05 04:01:00;;;;;;;;;;;10.30;68.20;;;;;;5022145;28;88174;-41
2022/10/05 04:03:46;;;;;;;;;;;10.30;68.10;;;;;;5022764;28;87437;-41
2022/10/05 04:06:17;;;;;;;;;;;10.20;68.10;;;;;;5022996;28;87707;-41
2022/10/05 04:08:55;;;;;;;;;;;10.20;68.10;;;;;;5025966;28;86599;-41
2022/10/05 04:11:24;;;;;;;;;;;10.20;68.30;;;;;;5023027;28;87080;-40
2022/10/05 04:13:49;;;;;;;;;;;10.10;68.20;;;;;;5021972;28;87246;-41
2022/10/05 04:16:21;;;;;;;;;;;10.20;68.20;;;;;;5022061;28;87993;-41
2022/10/05 04:18:49;;;;;;;;;;;10.20;68.20;;;;;;5022242;28;87624;-41
2022/10/05 04:21:28;;;;;;;;;;;10.20;68.10;;;;;;5022144;28;87940;-40
2022/10/05 04:23:59;;;;;;;;;;;10.10;68.10;;;;;;5022391;28;86925;-40
2022/10/05 04:26:35;;;;;;;;;;;10.10;68.20;;;;;;5022619;28;87503;-41
2022/10/05 04:29:11;;;;;;;;;;;10.10;68.10;;;;;;5022478;28;88160;-41
2022/10/05 04:31:45;;;;;;;;;;;10.10;68.00;;;;;;5025550;28;87020;-41
2022/10/05 04:34:31;;;;;;;;;;;10.10;68.10;;;;;;5021078;28;88013;-40
2022/10/05 04:36:58;;;;;;;;;;;10.10;68.20;;;;;;5022314;28;87127;-40
2022/10/05 04:39:27;;;;;;;;;;;10.10;68.30;;;;;;5022170;28;87337;-41
2022/10/05 04:42:11;;;;;;;;;;;10.10;68.70;;;;;;5021375;28;88972;-41
2022/10/05 04:44:42;;;;;;;;;;;10.10;68.00;;;;;;5022283;28;87019;-40
2022/10/05 04:47:25;;;;;;;;;;;10.00;68.10;;;;;;5022184;28;87299;-40
2022/10/05 04:50:02;;;;;;;;;;;10.00;68.20;;;;;;5021639;28;88128;-40
2022/10/05 04:52:47;;;;;;;;;;;10.00;68.20;;;;;;5022238;28;87572;-41
2022/10/05 04:55:31;;;;;;;;;;;10.00;68.00;;;;;;5024747;28;87305;-41
2022/10/05 04:58:15;;;;;;;;;;;10.00;68.10;;;;;;5024233;28;87056;-40
2022/10/05 05:00:44;;;;;;;;;;;10.00;68.10;;;;;;5026374;28;87276;-41
2022/10/05 05:03:29;;;;;;;;;;;10.00;68.00;;;;;;5025314;28;88179;-40
2022/10/05 05:06:04;;;;;;;;;;;10.00;68.10;;;;;;5025532;28;86924;-40
2022/10/05 05:08:29;;;;;;;;;;;9.90;68.10;;;;;;5025176;28;87883;-41
2022/10/05 05:11:19;;;;;;;;;;;10.00;68.00;;;;;;5025244;28;88115;-41
2022/10/05 05:13:56;;;;;;;;;;;10.00;68.10;;;;;;5025649;28;87075;-40
2022/10/05 05:16:34;;;;;;;;;;;9.90;68.10;;;;;;5027813;28;87422;-41
2022/10/05 05:19:17;;;;;;;;;;;10.00;67.90;;;;;;5025184;28;87145;-41
2022/10/05 05:22:01;;;;;;;;;;;10.00;68.00;;;;;;5025100;28;87322;-41
2022/10/05 05:24:45;;;;;;;;;;;9.90;68.20;;;;;;5025073;28;87913;-41
2022/10/05 05:27:13;;;;;;;;;;;9.90;68.10;;;;;;5025850;28;86449;-40
2022/10/05 05:29:50;;;;;;;;;;;9.90;68.10;;;;;;5025277;28;87033;-41
2022/10/05 05:32:21;;;;;;;;;;;9.90;68.00;;;;;;5024875;28;88189;-41
2022/10/05 05:35:07;;;;;;;;;;;9.80;68.20;;;;;;5024222;28;88051;-40
2022/10/05 05:37:51;;;;;;;;;;;9.80;68.20;;;;;;5025337;28;87536;-41
2022/10/05 05:40:37;;;;;;;;;;;9.90;68.10;;;;;;5027728;28;88289;-40
2022/10/05 05:43:06;;;;;;;;;;;9.80;68.10;;;;;;5020181;28;88990;-40
2022/10/05 05:45:31;;;;;;;;;;;9.80;68.20;;;;;;5024808;28;88015;-40
2022/10/05 05:47:58;;;;;;;;;;;9.80;68.20;;;;;;5024794;28;87056;-40
2022/10/05 05:50:38;;;;;;;;;;;9.80;68.30;;;;;;5024660;28;87277;-41
2022/10/05 05:53:20;;;;;;;;;;;9.80;68.40;;;;;;5025072;28;87445;-39
2022/10/05 05:55:47;;;;;;;;;;;9.80;68.50;;;;;;5024602;28;87045;-41
2022/10/05 05:58:15;;;;;;;;;;;9.80;68.30;;;;;;5024651;28;87228;-41
2022/10/05 06:00:47;;;;;;;;;;;9.80;68.40;;;;;;5023880;28;88967;-41
2022/10/05 06:03:17;;;;;;;;;;;9.80;68.40;;;;;;5027613;28;87078;-40
2022/10/05 06:05:45;;;;;;;;;;;9.70;68.40;;;;;;5024142;28;87083;-41
2022/10/05 06:08:23;;;;;;;;;;;9.70;68.40;;;;;;5023946;28;86996;-41
2022/10/05 06:10:51;;;;;;;;;;;9.70;68.60;;;;;;5024383;28;87367;-40
2022/10/05 06:13:23;;;;;;;;;;;9.70;68.50;;;;;;5024078;28;88214;-40
2022/10/05 06:15:56;;;;;;;;;;;9.70;68.50;;;;;;5024448;28;87065;-40
2022/10/05 06:18:22;;;;;;;;;;;9.70;68.50;;;;;;5024792;28;87331;-40
2022/10/05 06:20:51;;;;;;;;;;;9.70;68.50;;;;;;5023987;28;87301;-40
2022/10/05 06:23:19;;;;;;;;;;;9.70;68.50;;;;;;5023985;28;87210;-40
2022/10/05 06:26:05;;;;;;;;;;;9.70;68.40;;;;;;5026315;28;87969;-40
2022/10/05 06:28:31;;;;;;;;;;;9.70;68.50;;;;;;5024463;28;87022;-40
2022/10/05 06:31:09;;;;;;;;;;;9.70;68.30;;;;;;5024174;28;87485;-40
2022/10/05 06:33:34;;;;;;;;;;;9.70;68.20;;;;;;5023794;28;88004;-40
2022/10/05 06:36:12;;;;;;;;;;;9.70;68.40;;;;;;5024067;28;86958;-40
2022/10/05 06:38:56;;;;;;;;;;;9.70;68.40;;;;;;5024314;28;87585;-40
2022/10/05 06:41:30;;;;;;;;;;;9.70;68.40;;;;;;5023801;28;88081;-40
2022/10/05 06:43:57;;;;;;;;;;;9.70;68.50;;;;;;5024378;28;86358;-40
2022/10/05 06:46:41;;;;;;;;;;;9.70;68.60;;;;;;5023967;28;86953;-41
2022/10/05 06:49:16;;;;;;;;;;;9.70;68.50;;;;;;5025951;28;87079;-40
2022/10/05 06:51:42;;;;;;;;;;;9.70;68.70;;;;;;5023346;28;87915;-42
2022/10/05 06:54:17;;;;;;;;;;;9.70;68.80;;;;;;5023482;28;88141;-40
2022/10/05 06:56:53;;;;;;;;;;;9.70;68.80;;;;;;5023680;28;87139;-40
2022/10/05 06:59:30;;;;;;;;;;;9.70;68.90;;;;;;5024020;28;87379;-40
2022/10/05 07:01:58;;;;;;;;;;;9.70;68.80;;;;;;5023561;28;88154;-40
2022/10/05 07:04:41;;;;;;;;;;;9.60;69.00;;;;;;5023712;28;86928;-41
2022/10/05 07:07:30;;;;;;;;;;;9.60;69.00;;;;;;5023780;28;86873;-41
2022/10/05 07:09:55;;;;;;;;;;;9.60;69.00;;;;;;5021880;28;86386;-41
2022/10/05 07:12:40;;;;;;;;;;;9.60;69.00;;;;;;5026799;28;87095;-40
2022/10/05 07:15:23;;;;;;;;;;;9.60;69.10;;;;;;5023160;28;87880;-40
2022/10/05 07:17:52;;;;;;;;;;;9.60;69.00;;;;;;5022543;28;88015;-40
2022/10/05 07:20:18;;;;;;;;;;;9.70;69.10;;;;;;5023141;28;88332;-40
2022/10/05 07:22:50;;;;;;;;;;;9.60;69.20;;;;;;5023107;28;88038;-40
2022/10/05 07:25:20;;;;;;;;;;;9.60;69.20;;;;;;5023684;28;87076;-41
2022/10/05 07:27:55;;;;;;;;;;;9.60;69.20;;;;;;5023427;28;87367;-40
2022/10/05 07:30:20;;;;;;;;;;;9.60;69.20;;;;;;5022843;28;88229;-40
2022/10/05 07:32:55;;;;;;;;;;;9.70;69.10;;;;;;5026328;28;87031;-40
2022/10/05 07:38:16;;;;;;;;;;;9.80;68.60;;;;;;5023398;28;87023;-40
2022/10/05 07:40:48;;;;;;;;;;;9.80;68.80;;;;;;5023051;28;86959;-40
2022/10/05 07:43:29;;;;;;;;;;;9.80;68.80;;;;;;5022397;28;89062;-40
2022/10/05 07:45:54;;;;;;;;;;;9.80;69.00;;;;;;5023126;28;86873;-40
2022/10/05 07:48:21;;;;;;;;;;;9.80;68.80;;;;;;5023224;28;87429;-40
2022/10/05 07:50:53;;;;;;;;;;;9.90;68.90;;;;;;5022029;28;90469;-40
2022/10/05 07:53:23;;;;;;;;;;;9.80;68.90;;;;;;5023236;28;87420;-40
2022/10/05 07:55:56;;;;;;;;;;;9.80;69.10;;;;;;5025503;28;86961;-40
2022/10/05 07:58:33;;;;;;;;;;;9.80;69.00;;;;;;5022921;28;86961;-40
2022/10/05 08:01:07;;;;;;;;;;;9.90;69.10;;;;;;5023664;28;86535;-41
2022/10/05 08:03:39;;;;;;;;;;;9.80;68.80;;;;;;5022260;28;88026;-40
2022/10/05 08:06:06;;;;;;;;;;;9.90;69.20;;;;;;5022861;28;87088;-41
2022/10/05 08:08:43;;;;;;;;;;;9.80;68.90;;;;;;5022144;28;87868;-41
2022/10/05 08:11:14;;;;;;;;;;;9.90;69.00;;;;;;5022636;28;87920;-40
2022/10/05 08:13:49;;;;;;;;;;;9.90;69.20;;;;;;5022808;28;86953;-40
2022/10/05 08:16:15;;;;;;;;;;;9.90;69.20;;;;;;5022974;28;87272;-40
2022/10/05 08:18:44;;;;;;;;;;;9.80;69.10;;;;;;5025021;28;88041;-41
2022/10/05 08:21:10;;;;;;;;;;;9.80;69.10;;;;;;5022745;28;87384;-40
2022/10/05 08:23:42;;;;;;;;;;;9.90;69.20;;;;;;5022383;28;87870;-40
2022/10/05 08:26:07;;;;;;;;;;;9.80;69.20;;;;;;5023079;28;86323;-41
2022/10/05 08:28:38;;;;;;;;;;;9.90;69.30;;;;;;5022725;28;86950;-41
2022/10/05 08:31:06;;;;;;;;;;;9.80;69.30;;;;;;5022095;28;89321;-40
2022/10/05 08:33:41;;;;;;;;;;;9.80;69.20;;;;;;5025021;28;87980;-41
2022/10/05 08:36:09;;;;;;;;;;;9.90;69.30;;;;;;5026116;28;88454;-41
2022/10/05 08:38:35;;;;;;;;;;;9.90;69.20;;;;;;5025520;28;88170;-39
2022/10/05 08:41:19;;;;;;;;;;;9.90;69.20;;;;;;5028906;28;87619;-40
2022/10/05 08:43:53;;;;;;;;;;;9.90;69.40;;;;;;5025701;28;87265;-40
2022/10/05 08:46:38;;;;;;;;;;;9.90;69.60;;;;;;5026157;28;87095;-40
2022/10/05 08:49:03;;;;;;;;;;;9.90;69.60;;;;;;5025747;28;87528;-40
2022/10/05 08:51:44;;;;;;;;;;;10.00;69.50;;;;;;5026178;28;86411;-41
2022/10/05 08:54:28;;;;;;;;;;;9.90;69.40;;;;;;5025846;28;87017;-41
2022/10/05 08:57:13;;;;;;;;;;;9.90;69.60;;;;;;5025857;28;87449;-40
2022/10/05 08:59:58;;;;;;;;;;;9.90;69.20;;;;;;5023044;28;88191;-40
2022/10/05 09:02:40;;;;;;;;;;;9.90;69.50;;;;;;5025626;28;87210;-40
2022/10/05 09:05:18;;;;;;;;;;;10.00;69.60;;;;;;5028083;28;87474;-41
2022/10/05 09:07:43;;;;;;;;;;;10.00;69.60;;;;;;5025676;28;87413;-40
2022/10/05 09:10:15;;;;;;;;;;;10.00;69.50;;;;;;5025587;28;87458;-40
2022/10/05 09:12:59;;;;;;;;;;;10.00;69.60;;;;;;5025010;28;87436;-41
2022/10/05 09:15:34;;;;;;;;;;;10.00;69.50;;;;;;5025560;28;87182;-41
2022/10/05 09:18:18;;;;;;;;;;;10.10;69.50;;;;;;5025754;28;87715;-41
2022/10/05 09:20:46;;;;;;;;;;;10.00;69.40;;;;;;5025384;28;87900;-40
2022/10/05 09:23:15;;;;;;;;;;;10.00;69.70;;;;;;5025130;28;87104;-40
2022/10/05 09:25:46;;;;;;;;;;;10.00;70.40;;;;;;5024664;28;87867;-40
2022/10/05 09:28:21;;;;;;;;;;;10.10;69.60;;;;;;5027982;28;88145;-41
2022/10/05 09:30:47;;;;;;;;;;;10.10;69.40;;;;;;5025296;28;87462;-41
2022/10/05 09:33:12;;;;;;;;;;;10.10;69.70;;;;;;5024722;28;88021;-40
2022/10/05 09:35:52;;;;;;;;;;;10.10;69.50;;;;;;5024827;28;87165;-40
2022/10/05 09:38:36;;;;;;;;;;;10.10;69.60;;;;;;5025087;28;87528;-41
2022/10/05 09:41:10;;;;;;;;;;;10.10;69.60;;;;;;5024830;28;87296;-41
2022/10/05 09:43:54;;;;;;;;;;;10.20;69.50;;;;;;5025671;28;86833;-40
2022/10/05 09:46:33;;;;;;;;;;;10.20;69.70;;;;;;5025060;28;86949;-40
2022/10/05 09:49:21;;;;;;;;;;;10.20;69.60;;;;;;5027261;28;88089;-40
2022/10/05 09:51:47;;;;;;;;;;;10.30;69.60;;;;;;5024074;28;87926;-40
2022/10/05 09:54:18;;;;;;;;;;;10.20;69.70;;;;;;5024546;28;87064;-40
2022/10/05 09:57:03;;;;;;;;;;;10.30;69.30;;;;;;5024818;28;87001;-40
2022/10/05 09:59:31;;;;;;;;;;;10.30;69.50;;;;;;5024972;28;87377;-40
2022/10/05 10:02:00;;;;;;;;;;;10.30;69.40;;;;;;5024506;28;87807;-40
2022/10/05 10:04:39;;;;;;;;;;;10.30;69.60;;;;;;5024797;28;87065;-41
2022/10/05 10:07:08;;;;;;;;;;;10.30;69.50;;;;;;5024589;28;87102;-40
2022/10/05 10:09:36;;;;;;;;;;;10.30;69.50;;;;;;5024798;28;87978;-40
2022/10/05 10:12:04;;;;;;;;;;;10.30;69.40;;;;;;5027541;28;87256;-40
2022/10/05 10:14:48;;;;;;;;;;;10.40;69.50;;;;;;5024234;28;88184;-41
2022/10/05 10:17:16;;;;;;;;;;;10.30;69.50;;;;;;5023799;28;88295;-40
2022/10/05 10:19:45;;;;;;;;;;;10.40;69.70;;;;;;5024010;28;88296;-41
2022/10/05 10:22:25;;;;;;;;;;;10.30;69.80;;;;;;5024070;28;88025;-41
2022/10/05 10:25:09;;;;;;;;;;;10.30;70.00;;;;;;5024403;28;87122;-40
2022/10/05 10:27:42;;;;;;;;;;;10.30;70.20;;;;;;5024572;28;87345;-41
2022/10/05 10:30:08;;;;;;;;;;;10.30;69.90;;;;;;5024471;28;88175;-40
2022/10/05 10:32:36;;;;;;;;;;;10.40;69.80;;;;;;5024132;28;87065;-40
2022/10/05 10:35:05;;;;;;;;;;;10.40;69.60;;;;;;5027209;28;87467;-40
2022/10/05 10:37:45;;;;;;;;;;;10.50;69.60;;;;;;5024199;28;87117;-40
2022/10/05 10:40:18;;;;;;;;;;;10.50;69.40;;;;;;5024230;28;87137;-40
2022/10/05 10:43:03;;;;;;;;;;;10.50;69.70;;;;;;5023072;28;89000;-40
2022/10/05 10:45:47;;;;;;;;;;;10.50;69.40;;;;;;5024118;28;87292;-41
2022/10/05 10:48:18;;;;;;;;;;;10.50;69.50;;;;;;5024067;28;87255;-40
2022/10/05 10:50:50;;;;;;;;;;;10.70;69.40;;;;;;5021781;28;91241;-40
2022/10/05 10:53:28;;;;;;;;;;;10.70;69.90;;;;;;5023960;28;87114;-40
2022/10/05 10:56:12;;;;;;;;;;;10.70;69.30;;;;;;5023156;28;87883;-40
2022/10/05 10:58:53;;;;;;;;;;;10.80;69.20;;;;;;5026532;28;88099;-41
2022/10/05 11:01:38;;;;;;;;;;;10.80;69.30;;;;;;5024245;28;87404;-41
2022/10/05 11:04:09;;;;;;;;;;;10.80;69.40;;;;;;5023437;28;87793;-40
2022/10/05 11:06:53;;;;;;;;;;;10.80;69.30;;;;;;5023770;28;86983;-41
2022/10/05 11:09:27;;;;;;;;;;;10.80;69.40;;;;;;5023151;28;88116;-40
2022/10/05 11:12:04;;;;;;;;;;;10.90;69.80;;;;;;5023233;28;87878;-40
2022/10/05 11:15:05;;;;;;;;;;;10.90;69.20;;;;;;5023818;28;86899;-41
2022/10/05 11:17:49;;;;;;;;;;;10.90;69.40;;;;;;5021063;28;87408;-40
2022/10/05 11:20:21;;;;;;;;;;;10.90;69.30;;;;;;5022468;28;87976;-40
2022/10/05 11:22:46;;;;;;;;;;;10.90;69.50;;;;;;5026432;28;87102;-40
2022/10/05 11:25:41;;;;;;;;;;;10.90;69.50;;;;;;5023180;28;88048;-40
2022/10/05 11:28:15;;;;;;;;;;;10.90;69.60;;;;;;5021960;28;86797;-40
2022/10/05 11:30:50;;;;;;;;;;;10.90;69.70;;;;;;5023369;28;87030;-41
2022/10/05 11:33:33;;;;;;;;;;;10.90;69.50;;;;;;5022962;28;88377;-40
2022/10/05 11:35:59;;;;;;;;;;;11.00;69.30;;;;;;5022705;28;88031;-40
2022/10/05 11:38:37;;;;;;;;;;;11.00;69.40;;;;;;5023427;28;88468;-41
2022/10/05 11:41:05;;;;;;;;;;;11.10;69.10;;;;;;5022666;28;88161;-40
2022/10/05 11:43:51;;;;;;;;;;;11.10;69.10;;;;;;5023209;28;86953;-40
2022/10/05 11:46:26;;;;;;;;;;;11.10;69.10;;;;;;5025812;28;87337;-40
2022/10/05 11:49:10;;;;;;;;;;;11.20;68.80;;;;;;5022543;28;87323;-40
2022/10/05 11:51:44;;;;;;;;;;;11.20;68.70;;;;;;5023009;28;87459;-41
2022/10/05 11:54:16;;;;;;;;;;;11.20;68.90;;;;;;5023250;28;87140;-40
2022/10/05 11:56:50;;;;;;;;;;;11.20;68.70;;;;;;5022852;28;87294;-41
2022/10/05 11:59:22;;;;;;;;;;;11.20;68.90;;;;;;5022887;28;87855;-41
2022/10/05 12:01:47;;;;;;;;;;;11.20;68.90;;;;;;5021956;28;88912;-40
2022/10/05 12:04:33;;;;;;;;;;;11.30;68.80;;;;;;5022508;28;87086;-40
2022/10/05 12:07:06;;;;;;;;;;;11.30;68.80;;;;;;5023737;28;87116;-40
2022/10/05 12:12:37;;;;;;;;;;;11.30;68.80;;;;;;5022899;28;87031;-40
2022/10/05 12:15:16;;;;;;;;;;;11.30;68.70;;;;;;5022137;28;87109;-40
2022/10/05 12:17:46;;;;;;;;;;;11.30;68.50;;;;;;5021315;28;87123;-40
2022/10/05 12:20:31;;;;;;;;;;;11.30;68.70;;;;;;5022805;28;87454;-40
2022/10/05 12:23:01;;;;;;;;;;;11.40;68.60;;;;;;5022041;28;88278;-40
2022/10/05 12:25:41;;;;;;;;;;;11.40;69.20;;;;;;5022497;28;87094;-41
2022/10/05 12:28:16;;;;;;;;;;;11.40;68.50;;;;;;5022156;28;88344;-40
2022/10/05 12:30:47;;;;;;;;;;;11.40;68.60;;;;;;5025015;28;87562;-40
2022/10/05 12:33:31;;;;;;;;;;;11.50;68.60;;;;;;5022489;28;87442;-40
2022/10/05 12:36:12;;;;;;;;;;;11.50;68.50;;;;;;5022151;28;88070;-40
2022/10/05 12:38:43;;;;;;;;;;;11.50;68.50;;;;;;5022374;28;87493;-40
2022/10/05 12:41:26;;;;;;;;;;;11.50;68.30;;;;;;5022622;28;86947;-41
2022/10/05 12:43:53;;;;;;;;;;;11.50;68.10;;;;;;5021525;28;87961;-40
2022/10/05 12:46:28;;;;;;;;;;;11.50;68.40;;;;;;5022920;28;86198;-40
2022/10/05 12:49:00;;;;;;;;;;;11.50;68.20;;;;;;5022096;28;87111;-40
2022/10/05 12:51:25;;;;;;;;;;;11.60;68.30;;;;;;5021952;28;87979;-40
2022/10/05 12:53:56;;;;;;;;;;;11.50;68.40;;;;;;5024611;28;87924;-40
2022/10/05 12:56:40;;;;;;;;;;;11.60;68.70;;;;;;5021914;28;88375;-40
2022/10/05 12:59:21;;;;;;;;;;;11.60;68.10;;;;;;5022209;28;87226;-40
2022/10/05 13:01:52;;;;;;;;;;;11.60;67.90;;;;;;5022319;28;87262;-40
2022/10/05 13:04:24;;;;;;;;;;;11.60;68.20;;;;;;5021905;28;88003;-41
2022/10/05 13:07:07;;;;;;;;;;;11.70;68.10;;;;;;5022110;28;87156;-40
2022/10/05 13:09:39;;;;;;;;;;;11.70;68.00;;;;;;5022273;28;88575;-41
2022/10/05 13:12:12;;;;;;;;;;;11.70;68.00;;;;;;5022390;28;87294;-41
2022/10/05 13:14:46;;;;;;;;;;;11.80;68.00;;;;;;5022186;28;86994;-40
2022/10/05 13:17:47;;;;;;;;;;;11.70;67.00;;;;;;5024325;28;87161;-40
2022/10/05 13:20:27;;;;;;;;;;;11.80;67.80;;;;;;5022144;28;87898;-40
2022/10/05 13:22:59;;;;;;;;;;;11.80;67.90;;;;;;5025141;28;87656;-40
2022/10/05 13:25:35;;;;;;;;;;;11.80;67.70;;;;;;5025179;28;87289;-41
2022/10/05 13:28:01;;;;;;;;;;;11.80;67.80;;;;;;5025263;28;87126;-40
2022/10/05 13:30:27;;;;;;;;;;;11.80;67.70;;;;;;5025267;28;87403;-40
2022/10/05 13:32:52;;;;;;;;;;;11.90;67.90;;;;;;5024969;28;87179;-41
2022/10/05 13:35:21;;;;;;;;;;;11.90;67.60;;;;;;5025119;28;87066;-40
2022/10/05 13:38:05;;;;;;;;;;;11.90;67.30;;;;;;5025866;28;87201;-40
2022/10/05 13:40:49;;;;;;;;;;;11.90;67.50;;;;;;5027570;28;87971;-40
2022/10/05 13:43:17;;;;;;;;;;;12.00;67.50;;;;;;5025060;28;87407;-40
2022/10/05 13:45:49;;;;;;;;;;;12.00;67.70;;;;;;5023994;28;88887;-40
2022/10/05 13:48:19;;;;;;;;;;;12.00;67.50;;;;;;5025062;28;87121;-41
2022/10/05 13:51:07;;;;;;;;;;;12.00;67.40;;;;;;5024506;28;87548;-41
2022/10/05 13:53:43;;;;;;;;;;;12.00;67.00;;;;;;5024380;28;88248;-41
2022/10/05 13:56:17;;;;;;;;;;;12.00;67.30;;;;;;5025052;28;86989;-40
2022/10/05 13:58:42;;;;;;;;;;;12.00;67.30;;;;;;5025000;28;87519;-41
2022/10/05 14:01:25;;;;;;;;;;;12.10;67.20;;;;;;5024127;28;87979;-41
2022/10/05 14:04:09;;;;;;;;;;;12.10;67.30;;;;;;5028189;28;86308;-40
2022/10/05 14:06:35;;;;;;;;;;;12.10;67.30;;;;;;5024493;28;87102;-40
2022/10/05 14:09:01;;;;;;;;;;;12.10;67.20;;;;;;5024809;28;87080;-40
2022/10/05 14:11:34;;;;;;;;;;;12.10;67.20;;;;;;5022738;28;89161;-40
2022/10/05 14:14:09;;;;;;;;;;;12.10;67.40;;;;;;5024209;28;87161;-40
2022/10/05 14:16:42;;;;;;;;;;;12.10;67.00;;;;;;5024438;28;86832;-40
2022/10/05 14:19:18;;;;;;;;;;;12.10;67.30;;;;;;5024327;28;88462;-41
2022/10/05 14:21:52;;;;;;;;;;;12.20;67.30;;;;;;5024129;28;87181;-40
2022/10/05 14:24:18;;;;;;;;;;;12.20;67.20;;;;;;5027573;28;87705;-40
2022/10/05 14:26:49;;;;;;;;;;;12.20;67.30;;;;;;5024284;28;87775;-41
2022/10/05 14:29:15;;;;;;;;;;;12.20;67.30;;;;;;5024213;28;86248;-41
2022/10/05 14:31:56;;;;;;;;;;;12.20;67.00;;;;;;5024065;28;86825;-40
2022/10/05 14:34:35;;;;;;;;;;;12.20;67.20;;;;;;5023901;28;88171;-41
2022/10/05 14:37:19;;;;;;;;;;;12.20;67.30;;;;;;5023434;28;87767;-47
2022/10/05 14:39:49;;;;;;;;;;;12.20;67.30;;;;;;5024329;28;88352;-40
2022/10/05 14:42:19;;;;;;;;;;;12.30;67.20;;;;;;5023610;28;88105;-40
2022/10/05 14:44:45;;;;;;;;;;;12.30;67.40;;;;;;5023852;28;87039;-41
2022/10/05 14:47:14;;;;;;;;;;;12.30;67.40;;;;;;5026685;28;87365;-40
2022/10/05 14:49:47;;;;;;;;;;;12.30;67.30;;;;;;5023567;28;87073;-41
2022/10/05 14:52:40;;;;;;;;;;;12.30;67.30;;;;;;5023961;28;89877;-40
2022/10/05 14:55:24;;;;;;;;;;;12.30;67.00;;;;;;5023462;28;86478;-40
2022/10/05 14:58:04;;;;;;;;;;;12.30;67.10;;;;;;5023915;28;87058;-40
2022/10/05 15:00:32;;;;;;;;;;;12.40;67.00;;;;;;5023914;28;87512;-40
2022/10/05 15:03:02;;;;;;;;;;;12.30;66.70;;;;;;5022480;28;89403;-40
2022/10/05 15:05:46;;;;;;;;;;;12.30;66.70;;;;;;5023551;28;87056;-41
2022/10/05 15:08:23;;;;;;;;;;;12.30;67.20;;;;;;5023447;28;87318;-40